Saint Bonnet de Bellac- Haute Vienne - France
Donnes mto: lundi / mardi, 06/11/2012
Date Horaire Temp. E. Hum. E. P.atmo. Pluie Vent Direction Direction Ensoleilleme Solaire P. de rose Temp au vent Rafales
05/11/2012 17:00 9,5 C 80 % 1010,9 hPa 0,0 mm 0,0 km/h (0 Bft) SO 225 0 min 0 W/m 6,2 C 9,5 C 0,0 km/h (0 Bft)
05/11/2012 17:15 9,2 C 81 % 1010,9 hPa 0,0 mm 0,0 km/h (0 Bft) O-SO 247 0 min 0 W/m 6,1 C 9,2 C 0,0 km/h (0 Bft)
05/11/2012 17:30 8,8 C 83 % 1011,1 hPa 0,0 mm 5,0 km/h (1 Bft) S-SO 202 0 min 0 W/m 6,1 C 8,4 C 7,2 km/h (2 Bft)
05/11/2012 17:45 8,3 C 85 % 1011,2 hPa 0,0 mm 0,7 km/h (0 Bft) S-SO 202 0 min 0 W/m 5,9 C 8,3 C 6,1 km/h (2 Bft)
05/11/2012 18:00 7,9 C 85 % 1011,5 hPa 0,0 mm 0,0 km/h (0 Bft) SO 225 0 min 0 W/m 5,5 C 7,9 C 0,0 km/h (0 Bft)
05/11/2012 18:15 7,8 C 87 % 1011,5 hPa 0,0 mm 1,4 km/h (1 Bft) SO 225 0 min 0 W/m 5,8 C 7,8 C 3,6 km/h (1 Bft)
05/11/2012 18:30 7,6 C 89 % 1011,8 hPa 0,0 mm 4,3 km/h (1 Bft) SO 225 0 min 0 W/m 5,9 C 7,6 C 4,7 km/h (1 Bft)
05/11/2012 18:45 7,8 C 89 % 1012,0 hPa 0,0 mm 5,0 km/h (1 Bft) S-SO 202 0 min 0 W/m 6,1 C 7,3 C 11,5 km/h (2 Bft)
05/11/2012 19:00 8,1 C 89 % 1012,3 hPa 0,0 mm 5,0 km/h (1 Bft) O-SO 247 0 min 0 W/m 6,4 C 7,6 C 8,3 km/h (2 Bft)
05/11/2012 19:15 8,5 C 87 % 1012,4 hPa 0,0 mm 3,2 km/h (1 Bft) S-SO 202 0 min 0 W/m 6,5 C 8,5 C 6,5 km/h (2 Bft)
05/11/2012 19:30 8,6 C 87 % 1012,4 hPa 0,0 mm 5,4 km/h (2 Bft) E-SE 112 0 min 0 W/m 6,6 C 8,0 C 9,7 km/h (2 Bft)
05/11/2012 19:45 8,7 C 87 % 1012,4 hPa 0,0 mm 5,8 km/h (2 Bft) SO 225 0 min 0 W/m 6,7 C 8,0 C 7,6 km/h (2 Bft)
05/11/2012 20:00 8,7 C 88 % 1012,5 hPa 0,0 mm 8,3 km/h (2 Bft) S-SO 202 0 min 0 W/m 6,8 C 7,4 C 9,4 km/h (2 Bft)
05/11/2012 20:15 8,6 C 89 % 1012,7 hPa 0,1 mm 8,3 km/h (2 Bft) SO 225 0 min 0 W/m 6,9 C 7,3 C 11,9 km/h (2 Bft)
05/11/2012 20:30 8,5 C 89 % 1013,1 hPa 0,3 mm 13,3 km/h (3 Bft) S-SO 202 0 min 0 W/m 6,8 C 6,3 C 15,1 km/h (3 Bft)
05/11/2012 20:45 7,9 C 90 % 1013,2 hPa 0,4 mm 8,3 km/h (2 Bft) S-SE 157 0 min 0 W/m 6,4 C 6,5 C 10,8 km/h (2 Bft)
05/11/2012 21:00 7,5 C 90 % 1012,9 hPa 0,1 mm 5,4 km/h (2 Bft) S-SO 202 0 min 0 W/m 6,0 C 6,8 C 8,6 km/h (2 Bft)
05/11/2012 21:15 7,2 C 91 % 1013,3 hPa 0,0 mm 3,2 km/h (1 Bft) S-SO 202 0 min 0 W/m 5,8 C 7,2 C 4,3 km/h (1 Bft)
05/11/2012 21:30 7,2 C 92 % 1013,3 hPa 0,0 mm 5,0 km/h (1 Bft) S 180 0 min 0 W/m 6,0 C 6,6 C 7,6 km/h (2 Bft)
05/11/2012 21:45 7,2 C 92 % 1013,2 hPa 0,1 mm 4,7 km/h (1 Bft) SO 225 0 min 0 W/m 6,0 C 6,7 C 8,6 km/h (2 Bft)
05/11/2012 22:00 7,1 C 92 % 1013,4 hPa 0,0 mm 5,8 km/h (2 Bft) S-SO 202 0 min 0 W/m 5,9 C 6,2 C 10,4 km/h (2 Bft)
05/11/2012 22:15 7,0 C 93 % 1013,4 hPa 0,0 mm 4,3 km/h (1 Bft) S-SO 202 0 min 0 W/m 5,9 C 7,0 C 4,3 km/h (1 Bft)
05/11/2012 22:30 6,9 C 93 % 1013,4 hPa 0,0 mm 4,0 km/h (1 Bft) S 180 0 min 0 W/m 5,8 C 6,9 C 7,9 km/h (2 Bft)
05/11/2012 22:45 7,1 C 93 % 1013,3 hPa 0,0 mm 6,5 km/h (2 Bft) S-SO 202 0 min 0 W/m 6,0 C 6,0 C 13,0 km/h (3 Bft)
05/11/2012 23:00 7,1 C 94 % 1013,2 hPa 0,0 mm 3,6 km/h (1 Bft) S-SO 202 0 min 0 W/m 6,2 C 7,1 C 6,5 km/h (2 Bft)
05/11/2012 23:15 6,9 C 94 % 1013,3 hPa 0,0 mm 3,6 km/h (1 Bft) S-SO 202 0 min 0 W/m 6,0 C 6,9 C 8,6 km/h (2 Bft)
05/11/2012 23:30 6,9 C 94 % 1013,2 hPa 0,0 mm 5,4 km/h (2 Bft) S-SO 202 0 min 0 W/m 6,0 C 6,1 C 5,4 km/h (2 Bft)
05/11/2012 23:45 6,9 C 94 % 1013,5 hPa 0,0 mm 4,0 km/h (1 Bft) SO 225 0 min 0 W/m 6,0 C 6,9 C 7,2 km/h (2 Bft)
06/11/2012 00:00 6,8 C 94 % 1013,4 hPa 0,0 mm 4,3 km/h (1 Bft) SO 225 0 min 0 W/m 5,9 C 6,8 C 4,3 km/h (1 Bft)
06/11/2012 00:15 6,6 C 93 % 1013,3 hPa 0,0 mm 8,6 km/h (2 Bft) S 180 0 min 0 W/m 5,6 C 4,9 C 11,5 km/h (2 Bft)
06/11/2012 00:30 6,6 C 93 % 1013,2 hPa 0,0 mm 2,9 km/h (1 Bft) S-SO 202 0 min 0 W/m 5,6 C 6,6 C 3,6 km/h (1 Bft)
06/11/2012 00:45 6,5 C 94 % 1013,2 hPa 0,0 mm 4,0 km/h (1 Bft) S-SO 202 0 min 0 W/m 5,6 C 6,5 C 6,1 km/h (2 Bft)
06/11/2012 01:00 6,5 C 94 % 1013,3 hPa 0,0 mm 6,1 km/h (2 Bft) S-SO 202 0 min 0 W/m 5,6 C 5,4 C 9,0 km/h (2 Bft)
06/11/2012 01:15 6,6 C 94 % 1013,2 hPa 0,0 mm 9,4 km/h (2 Bft) S-SO 202 0 min 0 W/m 5,7 C 4,7 C 9,4 km/h (2 Bft)
06/11/2012 01:30 6,9 C 95 % 1013,3 hPa 0,1 mm 5,0 km/h (1 Bft) S-SO 202 0 min 0 W/m 6,2 C 6,2 C 6,5 km/h (2 Bft)
06/11/2012 01:45 7,2 C 95 % 1013,1 hPa 0,1 mm 2,9 km/h (1 Bft) S-SO 202 0 min 0 W/m 6,5 C 7,2 C 4,3 km/h (1 Bft)
06/11/2012 02:02 7,3 C 95 % 1013,2 hPa 0,2 mm 2,9 km/h (1 Bft) SO 225 0 min 0 W/m 6,6 C 7,3 C 4,3 km/h (1 Bft)
06/11/2012 02:15 7,4 C 95 % 1013,2 hPa 0,0 mm 0,7 km/h (0 Bft) S 180 0 min 0 W/m 6,7 C 7,4 C 4,0 km/h (1 Bft)
06/11/2012 02:30 7,4 C 95 % 1013,1 hPa 0,2 mm 2,9 km/h (1 Bft) S-SE 157 0 min 0 W/m 6,7 C 7,4 C 9,4 km/h (2 Bft)
06/11/2012 02:45 7,4 C 94 % 1013,0 hPa 0,0 mm 2,2 km/h (1 Bft) S-SO 202 0 min 0 W/m 6,5 C 7,4 C 4,0 km/h (1 Bft)
06/11/2012 03:00 7,5 C 93 % 1013,0 hPa 0,0 mm 4,3 km/h (1 Bft) S-SE 157 0 min 0 W/m 6,4 C 7,5 C 7,2 km/h (2 Bft)
06/11/2012 03:15 7,5 C 94 % 1013,1 hPa 0,1 mm 4,0 km/h (1 Bft) S-SO 202 0 min 0 W/m 6,6 C 7,5 C 6,8 km/h (2 Bft)
06/11/2012 03:30 7,5 C 93 % 1013,0 hPa 0,1 mm 0,4 km/h (0 Bft) S 180 0 min 0 W/m 6,4 C 7,5 C 0,4 km/h (0 Bft)
06/11/2012 03:45 7,4 C 93 % 1013,0 hPa 0,0 mm 2,5 km/h (1 Bft) SO 225 0 min 0 W/m 6,3 C 7,4 C 7,9 km/h (2 Bft)
06/11/2012 04:00 7,4 C 93 % 1012,8 hPa 0,0 mm 2,5 km/h (1 Bft) N 360 0 min 0 W/m 6,3 C 7,4 C 2,5 km/h (1 Bft)
06/11/2012 04:15 7,3 C 93 % 1012,9 hPa 0,0 mm 3,2 km/h (1 Bft) SE 135 0 min 0 W/m 6,2 C 7,3 C 7,6 km/h (2 Bft)
06/11/2012 04:30 7,3 C 93 % 1012,8 hPa 0,0 mm 3,6 km/h (1 Bft) S 180 0 min 0 W/m 6,2 C 7,3 C 4,3 km/h (1 Bft)
06/11/2012 04:45 7,2 C 93 % 1012,9 hPa 0,0 mm 0,0 km/h (0 Bft) S-SE 157 0 min 0 W/m 6,1 C 7,2 C 3,6 km/h (1 Bft)
06/11/2012 05:00 7,3 C 93 % 1012,9 hPa 0,0 mm 6,8 km/h (2 Bft) S-SE 157 0 min 0 W/m 6,2 C 6,1 C 11,5 km/h (2 Bft)
06/11/2012 05:15 7,3 C 94 % 1013,1 hPa 0,1 mm 2,9 km/h (1 Bft) S-SE 157 0 min 0 W/m 6,4 C 7,3 C 4,0 km/h (1 Bft)
06/11/2012 05:30 7,4 C 93 % 1013,1 hPa 0,2 mm 0,4 km/h (0 Bft) S-SE 157 0 min 0 W/m 6,3 C 7,4 C 3,2 km/h (1 Bft)
06/11/2012 05:45 7,4 C 94 % 1013,3 hPa 0,2 mm 0,0 km/h (0 Bft) S-SE 157 0 min 0 W/m 6,5 C 7,4 C 0,0 km/h (0 Bft)
06/11/2012 06:00 7,3 C 94 % 1013,3 hPa 0,2 mm 0,0 km/h (0 Bft) S-SE 157 0 min 0 W/m 6,4 C 7,3 C 0,0 km/h (0 Bft)
06/11/2012 06:15 7,4 C 94 % 1013,4 hPa 0,2 mm 1,4 km/h (1 Bft) E-SE 112 0 min 0 W/m 6,5 C 7,4 C 4,0 km/h (1 Bft)
06/11/2012 06:30 7,4 C 94 % 1013,6 hPa 0,3 mm 1,1 km/h (1 Bft) NE 45 0 min 0 W/m 6,5 C 7,4 C 1,4 km/h (1 Bft)
06/11/2012 06:45 7,4 C 94 % 1013,6 hPa 0,5 mm 1,4 km/h (1 Bft) SE 135 0 min 0 W/m 6,5 C 7,4 C 1,8 km/h (1 Bft)
06/11/2012 07:00 7,4 C 94 % 1014,1 hPa 0,3 mm 2,5 km/h (1 Bft) NE 45 0 min 0 W/m 6,5 C 7,4 C 4,3 km/h (1 Bft)
06/11/2012 07:15 7,1 C 93 % 1014,7 hPa 0,4 mm 6,5 km/h (2 Bft) N-NE 22 0 min 0 W/m 6,0 C 6,0 C 12,2 km/h (2 Bft)
06/11/2012 07:30 6,7 C 93 % 1015,3 hPa 0,1 mm 6,8 km/h (2 Bft) N 360 0 min 0 W/m 5,6 C 5,4 C 7,6 km/h (2 Bft)
06/11/2012 07:45 6,5 C 93 % 1015,7 hPa 0,1 mm 5,4 km/h (2 Bft) N 360 0 min 0 W/m 5,5 C 5,6 C 14,4 km/h (3 Bft)
06/11/2012 08:00 6,3 C 93 % 1016,2 hPa 0,1 mm 1,8 km/h (1 Bft) NE 45 0 min 0 W/m 5,3 C 6,3 C 4,0 km/h (1 Bft)
06/11/2012 08:15 6,3 C 93 % 1016,8 hPa 0,1 mm 4,3 km/h (1 Bft) N 360 0 min 0 W/m 5,3 C 6,3 C 10,1 km/h (2 Bft)
06/11/2012 08:30 6,2 C 93 % 1017,3 hPa 0,0 mm 4,3 km/h (1 Bft) N 360 0 min 0 W/m 5,2 C 6,2 C 9,7 km/h (2 Bft)
06/11/2012 08:45 6,3 C 94 % 1017,6 hPa 0,0 mm 6,8 km/h (2 Bft) N-NE 22 0 min 0 W/m 5,4 C 5,0 C 7,6 km/h (2 Bft)
06/11/2012 09:00 6,3 C 94 % 1018,0 hPa 0,0 mm 3,2 km/h (1 Bft) N-NE 22 0 min 0 W/m 5,4 C 6,3 C 7,9 km/h (2 Bft)
06/11/2012 09:15 6,3 C 94 % 1018,5 hPa 0,0 mm 1,1 km/h (1 Bft) N-NE 22 0 min 0 W/m 5,4 C 6,3 C 1,1 km/h (1 Bft)
06/11/2012 09:30 6,3 C 94 % 1018,8 hPa 0,1 mm 1,8 km/h (1 Bft) NE 45 0 min 0 W/m 5,4 C 6,3 C 7,6 km/h (2 Bft)
06/11/2012 09:45 6,3 C 94 % 1019,0 hPa 0,0 mm 11,5 km/h (2 Bft) N-NE 22 0 min 0 W/m 5,4 C 3,9 C 17,3 km/h (3 Bft)
06/11/2012 10:00 6,2 C 93 % 1019,3 hPa 0,0 mm 2,9 km/h (1 Bft) N-NE 22 0 min 0 W/m 5,2 C 6,2 C 4,3 km/h (1 Bft)
06/11/2012 10:15 6,2 C 93 % 1019,7 hPa 0,0 mm 8,3 km/h (2 Bft) N-NE 22 0 min 0 W/m 5,2 C 4,5 C 10,1 km/h (2 Bft)
06/11/2012 10:30 6,4 C 93 % 1020,0 hPa 0,0 mm 2,5 km/h (1 Bft) N-NO 337 0 min 0 W/m 5,4 C 6,4 C 3,2 km/h (1 Bft)
06/11/2012 10:45 6,6 C 93 % 1020,2 hPa 0,0 mm 8,3 km/h (2 Bft) NE 45 0 min 0 W/m 5,6 C 4,9 C 9,0 km/h (2 Bft)
06/11/2012 11:00 6,6 C 93 % 1020,5 hPa 0,0 mm 2,9 km/h (1 Bft) NE 45 0 min 0 W/m 5,6 C 6,6 C 6,1 km/h (2 Bft)
06/11/2012 11:15 6,6 C 93 % 1020,9 hPa 0,0 mm 1,8 km/h (1 Bft) N-NE 22 0 min 0 W/m 5,6 C 6,6 C 3,2 km/h (1 Bft)
06/11/2012 11:30 6,6 C 93 % 1021,1 hPa 0,0 mm 5,8 km/h (2 Bft) N-NE 22 0 min 0 W/m 5,6 C 5,6 C 10,4 km/h (2 Bft)
06/11/2012 11:45 6,8 C 93 % 1021,3 hPa 0,0 mm 3,2 km/h (1 Bft) NE 45 0 min 0 W/m 5,7 C 6,8 C 10,4 km/h (2 Bft)
06/11/2012 12:00 6,9 C 93 % 1021,6 hPa 0,0 mm 4,7 km/h (1 Bft) NE 45 0 min 0 W/m 5,8 C 6,3 C 4,7 km/h (1 Bft)
06/11/2012 12:15 7,1 C 92 % 1021,9 hPa 0,0 mm 7,9 km/h (2 Bft) NE 45 0 min 0 W/m 5,9 C 5,6 C 11,5 km/h (2 Bft)
06/11/2012 12:30 7,1 C 92 % 1022,1 hPa 0,0 mm 2,5 km/h (1 Bft) NE 45 0 min 0 W/m 5,9 C 7,1 C 3,2 km/h (1 Bft)
06/11/2012 12:45 7,4 C 92 % 1022,4 hPa 0,0 mm 6,5 km/h (2 Bft) E-NE 67 0 min 0 W/m 6,2 C 6,3 C 11,2 km/h (2 Bft)
06/11/2012 13:00 7,5 C 90 % 1022,5 hPa 0,0 mm 4,7 km/h (1 Bft) N-NO 337 0 min 0 W/m 6,0 C 7,0 C 4,7 km/h (1 Bft)
06/11/2012 13:15 7,8 C 90 % 1022,4 hPa 0,0 mm 2,5 km/h (1 Bft) NO 315 0 min 0 W/m 6,3 C 7,8 C 7,2 km/h (2 Bft)
06/11/2012 13:30 8,3 C 89 % 1022,6 hPa 0,0 mm 3,6 km/h (1 Bft) N-NE 22 0 min 0 W/m 6,6 C 8,3 C 3,6 km/h (1 Bft)
06/11/2012 13:45 8,1 C 87 % 1022,7 hPa 0,0 mm 1,8 km/h (1 Bft) N 360 0 min 0 W/m 6,1 C 8,1 C 4,3 km/h (1 Bft)
06/11/2012 14:00 8,1 C 87 % 1022,8 hPa 0,0 mm 1,8 km/h (1 Bft) N 360 0 min 0 W/m 6,1 C 8,1 C 1,8 km/h (1 Bft)
06/11/2012 14:15 8,4 C 86 % 1022,9 hPa 0,0 mm 5,0 km/h (1 Bft) N-NE 22 0 min 0 W/m 6,2 C 7,9 C 7,9 km/h (2 Bft)
06/11/2012 14:30 9,0 C 84 % 1023,4 hPa 0,0 mm 6,5 km/h (2 Bft) N-NO 337 0 min 0 W/m 6,4 C 8,2 C 8,6 km/h (2 Bft)
06/11/2012 14:45 9,1 C 83 % 1023,6 hPa 0,0 mm 1,8 km/h (1 Bft) N-NE 22 0 min 0 W/m 6,4 C 9,1 C 4,0 km/h (1 Bft)
06/11/2012 15:00 9,5 C 80 % 1023,8 hPa 0,0 mm 8,3 km/h (2 Bft) N-NE 22 0 min 0 W/m 6,2 C 8,4 C 16,9 km/h (3 Bft)
06/11/2012 15:15 9,5 C 79 % 1023,9 hPa 0,0 mm 1,8 km/h (1 Bft) N-NE 22 0 min 0 W/m 6,0 C 9,5 C 6,8 km/h (2 Bft)
06/11/2012 15:30 9,8 C 80 % 1024,1 hPa 0,0 mm 3,2 km/h (1 Bft) NO 315 0 min 0 W/m 6,5 C 9,8 C 8,6 km/h (2 Bft)
06/11/2012 15:45 10,1 C 78 % 1023,9 hPa 0,0 mm 0,0 km/h (0 Bft) N 360 0 min 0 W/m 6,4 C 10,1 C 0,0 km/h (0 Bft)
06/11/2012 16:00 9,9 C 77 % 1024,4 hPa 0,0 mm 0,7 km/h (0 Bft) NE 45 0 min 0 W/m 6,1 C 9,9 C 4,0 km/h (1 Bft)
06/11/2012 16:15 9,7 C 75 % 1024,8 hPa 0,0 mm 1,1 km/h (1 Bft) N-NE 22 0 min 0 W/m 5,5 C 9,7 C 4,3 km/h (1 Bft)
06/11/2012 16:30 9,4 C 76 % 1024,9 hPa 0,0 mm 6,5 km/h (2 Bft) NO 315 0 min 0 W/m 5,4 C 8,7 C 10,4 km/h (2 Bft)
06/11/2012 16:45 9,1 C 76 % 1025,0 hPa 0,0 mm 0,7 km/h (0 Bft) N-NO 337 0 min 0 W/m 5,1 C 9,1 C 4,3 km/h (1 Bft)
_ Min-Heure 10:15 16:15 17:15 - 15:45 - - - - 16:45 09:45 15:45
Minimum _ 6,2 C 75 % 1010,9 hPa - 0,0 km/h (0 Bft) - - - - 5,1 C 3,9 C 0,0 km/h (0 Bft)
_ Max-Heure 15:45 02:30 16:45 06:45 20:30 - - 16:45 16:45 20:15 15:45 09:45
Maximum _ 10,1 C 95 % 1025,0 hPa 0,5 mm 13,3 km/h
S-SO (3 Bft)
- - 0 min 0 W/m 6,9 C 10,1 C 17,3 km/h
N-NE (3 Bft)
Moyenne _ 7,7 C 90 % 1015,8 hPa #3,9 mm 3,7 km/h (1 Bft) S-SO - #0 min. 0 W/m 6,0 C 7,3 C 6,2 km/h (2 Bft)
Saint Bonnet de Bellac- Haute Vienne - France